CW1621 Weather Reports


Display with metric or nautical units.
time (UTC)temp
F
wind
direction
speed
MPH
gust
MPH
rain 1hr
in
rain 24hr
in
rain mn
in
humidity
%
barometer
mb
20180124071603 38 210 11.0 15.0 0.00 0.00 0.00 76 1020.2
20180124071104 38 213 11.0 14.0 0.00 0.00 0.00 75 1020.5
20180124070603 38 209 10.0 14.0 0.00 0.00 0.00 76 1020.6
20180124070104 38 199 9.0 18.0 0.00 0.00 0.00 77 1020.6
20180124064603 36 179 3.0 7.0 0.00 0.00 0.00 81 1020.9
20180124064103 36 178 5.0 7.0 0.00 0.00 0.00 82 1020.9
20180124063603 35 145 4.0 7.0 0.00 0.00 0.00 82 1021.2
20180124063103 35 141 4.0 7.0 0.00 0.00 0.00 83 1021.2
20180124061603 34 142 3.0 5.0 0.00 0.00 0.00 86 1021.2
20180124061103 34 142 4.0 6.0 0.00 0.00 0.00 86 1021.3
20180124060603 34 142 4.0 6.0 0.00 0.00 0.00 86 1021.3
20180124054604 36 149 6.0 9.0 0.00 0.00 0.00 81 1021.0
20180124054103 36 151 7.0 10.0 0.00 0.00 0.00 81 1021.0
20180124053603 36 161 7.0 12.0 0.00 0.00 0.00 82 1021.0
20180124053103 35 164 6.0 9.0 0.00 0.00 0.00 82 1021.0
20180124051603 35 165 6.0 12.0 0.00 0.00 0.00 82 1021.3
20180124051103 35 178 5.0 7.0 0.00 0.00 0.00 83 1021.6
20180124050603 35 179 5.0 12.0 0.00 0.00 0.00 82 1021.6
20180124050104 36 179 8.0 13.0 0.00 0.00 0.00 81 1021.6
20180124044603 36 195 10.0 13.0 0.00 0.00 0.00 81 1021.8
20180124044105 36 180 10.0 12.0 0.00 0.00 0.00 81 1021.9
20180124043604 36 186 13.0 18.0 0.00 0.00 0.00 81 1021.9
20180124043104 35 189 12.0 17.0 0.00 0.00 0.00 82 1022.0
20180124041603 35 180 9.0 12.0 0.00 0.00 0.00 82 1022.2
20180124041104 35 188 10.0 14.0 0.00 0.00 0.00 82 1022.5
20180124040603 35 169 7.0 12.0 0.00 0.00 0.00 82 1022.4
20180124034604 35 170 6.0 9.0 0.00 0.00 0.00 82 1022.5
20180124034103 35 168 9.0 13.0 0.00 0.00 0.00 82 1022.6
20180124033604 35 162 8.0 12.0 0.00 0.00 0.00 82 1022.6
20180124033103 35 164 7.0 15.0 0.00 0.00 0.00 82 1022.7
20180124031604 35 183 12.0 15.0 0.00 0.00 0.00 82 1022.9
20180124031103 35 189 10.0 14.0 0.00 0.00 0.00 81 1023.2
20180124030603 35 178 8.0 10.0 0.00 0.00 0.00 82 1023.3
20180124030104 35 181 7.0 13.0 0.00 0.00 0.00 81 1023.3
20180124024603 35 174 8.0 12.0 0.00 0.00 0.00 80 1023.2
20180124024104 36 178 12.0 15.0 0.00 0.00 0.00 79 1023.2
20180124023604 36 190 10.0 16.0 0.00 0.00 0.00 80 1023.2
20180124023103 36 196 13.0 16.0 0.00 0.00 0.00 79 1023.4
20180124021604 35 173 3.0 5.0 0.00 0.00 0.00 79 1023.7
20180124021104 35 173 4.0 7.0 0.00 0.00 0.00 79 1023.8
20180124020604 34 156 3.0 6.0 0.00 0.00 0.00 80 1024.1
20180124020104 34 127 3.0 9.0 0.00 0.00 0.00 81 1024.2
20180124014603 34 126 5.0 7.0 0.00 0.00 0.00 80 1024.2
20180124014104 34 126 5.0 6.0 0.00 0.00 0.00 81 1024.2
20180124013603 34 126 5.0 6.0 0.00 0.00 0.00 81 1024.3
20180124013104 34 126 5.0 8.0 0.00 0.00 0.00 81 1024.3
20180124011603 34 126 6.0 8.0 0.00 0.00 0.00 80 1024.4
20180124011104 34 126 6.0 7.0 0.00 0.00 0.00 79 1024.2
20180124010604 34 126 5.0 6.0 0.00 0.00 0.00 79 1024.3
20180124010103 35 126 5.0 10.0 0.00 0.00 0.00 78 1024.0
20180124004604 34 127 5.0 6.0 0.00 0.00 0.00 79 1024.3
20180124004104 35 127 5.0 6.0 0.00 0.00 0.00 78 1024.1
20180124003604 35 131 5.0 6.0 0.00 0.00 0.00 78 1024.1
20180124003104 35 134 6.0 7.0 0.00 0.00 0.00 77 1024.2
20180124001605 36 140 5.0 6.0 0.00 0.00 0.00 75 1024.3
20180124001103 36 144 3.0 5.0 0.00 0.00 0.00 76 1024.3
20180124000603 36 144 5.0 8.0 0.00 0.00 0.00 75 1024.5
20180124000104 36 143 7.0 12.0 0.00 0.00 0.00 75 1024.5
20180123234604 36 136 8.0 12.0 0.00 0.00 0.00 75 1024.7
20180123234104 36 133 7.0 10.0 0.00 0.00 0.00 76 1024.7
20180123233604 36 138 9.0 12.0 0.00 0.00 0.00 74 1024.9
20180123233104 36 138 9.0 12.0 0.00 0.00 0.00 75 1024.8
20180123231604 36 144 10.0 12.0 0.00 0.00 0.00 73 1025.0
20180123231104 36 141 10.0 12.0 0.00 0.00 0.00 74 1025.0
20180123230603 36 141 9.0 13.0 0.00 0.00 0.00 74 1025.0
20180123230104 35 137 8.0 12.0 0.00 0.00 0.00 77 1025.2
20180123224603 35 115 7.0 12.0 0.00 0.00 0.00 76 1025.3
20180123224104 35 110 9.0 12.0 0.00 0.00 0.00 78 1025.4
20180123223604 36 130 7.0 10.0 0.00 0.00 0.00 76 1025.2
20180123223104 36 137 6.0 7.0 0.00 0.00 0.00 75 1025.3
20180123221603 36 164 6.0 7.0 0.00 0.00 0.00 75 1025.6
20180123221104 36 173 3.0 5.0 0.00 0.00 0.00 74 1025.8
20180123220604 36 173 3.0 6.0 0.00 0.00 0.00 72 1025.9
20180123220104 36 173 3.0 8.0 0.00 0.00 0.00 73 1025.9
20180123214603 36 163 5.0 6.0 0.00 0.00 0.00 72 1026.0
20180123214104 36 162 5.0 7.0 0.00 0.00 0.00 73 1026.0
20180123213604 36 140 0.0 0.0 0.00 0.00 0.00 75 1026.1
20180123213104 35 140 2.0 7.0 0.00 0.00 0.00 75 1026.5
20180123211604 35 140 6.0 9.0 0.00 0.00 0.00 76 1026.4
20180123211104 35 140 7.0 10.0 0.00 0.00 0.00 75 1026.5
20180123210604 35 152 6.0 9.0 0.00 0.00 0.00 76 1026.7
20180123210104 35 155 8.0 12.0 0.00 0.00 0.00 76 1026.8
20180123204604 34 135 6.0 7.0 0.00 0.00 0.00 79 1027.3
20180123204104 34 135 5.0 7.0 0.00 0.00 0.00 79 1027.4
20180123203604 34 136 5.0 6.0 0.00 0.00 0.00 80 1027.4
20180123203104 33 136 5.0 5.0 0.00 0.00 0.00 80 1027.5
20180123201604 34 140 5.0 7.0 0.00 0.00 0.00 78 1027.5
20180123201104 34 150 1.0 3.0 0.00 0.01 0.00 79 1027.5
20180123200604 34 150 2.0 3.0 0.00 0.01 0.00 78 1027.7
20180123200104 34 150 2.0 5.0 0.00 0.01 0.00 79 1027.8
20180123194604 33 150 5.0 6.0 0.00 0.01 0.00 78 1028.0
20180123194104 33 150 5.0 6.0 0.00 0.01 0.00 79 1028.2
20180123193604 33 150 5.0 6.0 0.00 0.01 0.00 79 1028.3
20180123193104 33 149 5.0 12.0 0.00 0.01 0.00 79 1028.3
20180123191604 33 138 7.0 13.0 0.00 0.01 0.00 81 1028.2
20180123191104 32 133 7.0 12.0 0.00 0.02 0.00 81 1028.5
20180123190604 32 134 10.0 12.0 0.00 0.02 0.00 80 1028.6
20180123190105 32 126 9.0 12.0 0.00 0.02 0.00 81 1028.6
20180123184604 32 132 9.0 15.0 0.00 0.02 0.00 80 1028.7
20180123184103 32 133 12.0 15.0 0.00 0.02 0.00 80 1028.8
20180123183604 32 130 11.0 13.0 0.00 0.02 0.00 80 1028.9
20180123183103 31 135 10.0 15.0 0.00 0.02 0.00 81 1029.3
20180123181603 32 133 8.0 12.0 0.00 0.03 0.00 79 1029.4
20180123181104 32 138 9.0 13.0 0.00 0.03 0.00 79 1029.5
20180123180604 32 140 9.0 12.0 0.00 0.03 0.00 79 1029.6
20180123180104 31 141 9.0 12.0 0.00 0.03 0.00 80 1029.6
20180123174604 30 135 8.0 10.0 0.00 0.03 0.00 81 1029.8
20180123174104 30 137 7.0 12.0 0.00 0.03 0.00 80 1029.9
20180123173603 30 132 7.0 12.0 0.00 0.04 0.00 80 1029.9
20180123173104 30 132 8.0 10.0 0.00 0.04 0.00 79 1030.1
20180123171604 31 148 7.0 10.0 0.00 0.04 0.00 78 1030.0
20180123171103 30 149 7.0 12.0 0.00 0.04 0.00 78 1030.9
20180123170604 31 148 9.0 10.0 0.00 0.04 0.00 78 1030.8
20180123170105 30 146 7.0 12.0 0.00 0.04 0.00 78 1031.0
20180123164605 29 155 9.0 12.0 0.00 0.04 0.00 81 1031.4
20180123164104 29 157 7.0 10.0 0.00 0.04 0.00 81 1031.4
20180123163604 29 157 6.0 8.0 0.00 0.04 0.00 80 1031.4
20180123163104 30 157 6.0 10.0 0.00 0.04 0.00 79 1031.2
20180123161603 30 157 6.0 10.0 0.00 0.04 0.00 79 1031.1
20180123161104 30 157 7.0 12.0 0.00 0.04 0.00 79 1030.5
20180123160604 29 157 9.0 12.0 0.00 0.04 0.00 81 1030.9
20180123160105 28 29 0.0 10.0 0.00 0.04 0.00 83 1030.8
20180123154604 28 0 0.0 0.0 0.00 0.04 0.00 83 1030.9
20180123154104 28 0 0.0 0.0 0.00 0.04 0.00 83 1030.9
20180123153605 28 0 0.0 0.0 0.00 0.04 0.00 83 1030.9
20180123153104 28 4 0.0 5.0 0.00 0.04 0.00 83 1030.9
20180123151604 28 200 5.0 5.0 0.00 0.04 0.00 83 1031.4
20180123151104 28 200 3.0 3.0 0.00 0.04 0.00 83 1031.4
20180123150604 28 200 2.0 3.0 0.00 0.04 0.00 83 1031.6
20180123150104 28 200 3.0 3.0 0.00 0.04 0.00 83 1031.6
20180123144604 28 199 0.0 0.0 0.00 0.04 0.00 84 1031.5
20180123144104 28 200 0.0 0.0 0.00 0.04 0.00 84 1031.6
20180123143603 27 199 0.0 0.0 0.00 0.04 0.00 85 1031.9
20180123143104 27 200 0.0 0.0 0.00 0.04 0.00 85 1032.1
20180123141605 27 199 1.0 3.0 0.00 0.04 0.00 84 1032.1
20180123141104 27 200 3.0 3.0 0.00 0.04 0.00 84 1031.3
20180123140604 27 200 4.0 5.0 0.00 0.04 0.00 84 1031.3
20180123140104 27 200 5.0 5.0 0.00 0.04 0.00 84 1031.4
20180123134605 28 200 2.0 3.0 0.00 0.04 0.00 83 1031.5
20180123134104 28 200 3.0 3.0 0.00 0.04 0.00 83 1031.5
20180123133605 29 200 4.0 6.0 0.00 0.04 0.00 83 1031.2
20180123133104 29 200 5.0 8.0 0.00 0.04 0.00 83 1031.3
20180123131604 29 205 7.0 9.0 0.00 0.04 0.00 83 1031.4
20180123131104 29 206 6.0 8.0 0.00 0.04 0.00 85 1031.1
20180123130604 29 209 5.0 7.0 0.00 0.04 0.00 85 1031.2
20180123130104 29 215 4.0 6.0 0.00 0.04 0.00 85 1031.3
20180123124604 28 227 5.0 6.0 0.00 0.04 0.00 85 1031.7
20180123124104 28 227 4.0 5.0 0.00 0.04 0.00 85 1031.7
20180123123604 28 227 3.0 3.0 0.00 0.04 0.00 84 1031.7
20180123123104 28 227 3.0 5.0 0.00 0.04 0.00 84 1031.8
20180123121604 29 227 5.0 6.0 0.00 0.04 0.00 84 1031.5
20180123121105 29 227 6.0 7.0 0.00 0.04 0.00 84 1031.5
20180123120604 28 232 5.0 6.0 0.00 0.04 0.00 85 1031.5
20180123120104 28 233 5.0 6.0 0.00 0.04 0.00 85 1031.7
20180123114604 28 233 3.0 3.0 0.00 0.04 0.00 85 1031.8
20180123114105 28 233 3.0 3.0 0.00 0.04 0.00 85 1031.8
20180123113604 28 233 3.0 3.0 0.00 0.04 0.00 85 1031.8
20180123113104 28 233 3.0 6.0 0.00 0.04 0.00 85 1031.8
20180123111604 28 233 3.0 5.0 0.00 0.04 0.00 85 1031.9
20180123111104 28 233 4.0 5.0 0.00 0.04 0.00 85 1032.0
20180123110604 28 233 5.0 5.0 0.00 0.04 0.00 85 1031.9
20180123110104 27 233 5.0 6.0 0.00 0.04 0.00 86 1032.2
20180123104605 27 223 5.0 6.0 0.00 0.04 0.00 85 1032.2
20180123104104 27 223 5.0 6.0 0.00 0.04 0.00 85 1032.2
20180123103604 27 223 5.0 5.0 0.00 0.04 0.00 85 1032.2
20180123103104 27 223 3.0 5.0 0.00 0.04 0.00 84 1032.1
20180123101604 28 223 6.0 20.0 0.00 0.04 0.00 84 1032.0
20180123101101 28 223 6.0 8.0 0.00 0.04 0.00 85 1031.9
20180123100601 27 223 6.0 7.0 0.00 0.04 0.00 86 1032.3
20180123100102 26 223 5.0 7.0 0.00 0.04 0.00 85 1032.3
20180123094601 28 223 6.0 7.0 0.00 0.04 0.00 84 1031.9
20180123094102 28 223 3.0 6.0 0.00 0.04 0.00 83 1031.9
20180123093602 28 223 6.0 7.0 0.00 0.04 0.00 85 1031.9
20180123093101 27 223 5.0 7.0 0.00 0.04 0.00 84 1032.0
20180123091602 27 227 6.0 7.0 0.00 0.04 0.00 85 1032.1
20180123091102 27 227 5.0 6.0 0.00 0.04 0.00 85 1031.6
20180123090601 27 227 7.0 8.0 0.00 0.04 0.00 86 1031.6
20180123090105 27 227 5.0 8.0 0.00 0.04 0.00 85 1031.7
20180123084602 26 227 5.0 6.0 0.00 0.04 0.00 85 1032.1
20180123084101 26 227 4.0 5.0 0.00 0.04 0.00 84 1032.1
20180123083602 27 227 3.0 6.0 0.00 0.04 0.00 85 1031.8
20180123083101 26 227 5.0 6.0 0.00 0.04 0.00 85 1032.0
20180123081601 27 229 3.0 5.0 0.00 0.04 0.00 84 1031.9
20180123081103 27 229 4.0 5.0 0.00 0.04 0.00 85 1031.8
20180123080601 26 229 3.0 5.0 0.00 0.04 0.00 86 1032.2
20180123080103 25 229 6.0 6.0 0.00 0.04 0.00 86 1032.2
20180123074601 25 229 5.0 5.0 0.00 0.04 0.04 85 1032.3
20180123074101 25 229 3.0 5.0 0.00 0.04 0.04 85 1032.4
20180123073602 25 229 3.0 5.0 0.00 0.04 0.04 85 1032.5
20180123073102 25 229 5.0 7.0 0.00 0.04 0.04 84 1032.5